sensor_id;sensor_type;location;lat;lon;timestamp;temperature;humidity
52899;DHT22;38763;53.096;6.062;2023-01-26T00:00:43;0.50;99.90
52899;DHT22;38763;53.096;6.062;2023-01-26T00:03:09;0.40;99.90
52899;DHT22;38763;53.096;6.062;2023-01-26T00:05:38;0.40;99.90
52899;DHT22;38763;53.096;6.062;2023-01-26T00:08:04;0.40;99.90
52899;DHT22;38763;53.096;6.062;2023-01-26T00:10:30;0.60;99.90
52899;DHT22;38763;53.096;6.062;2023-01-26T00:12:55;0.50;99.90
52899;DHT22;38763;53.096;6.062;2023-01-26T00:15:21;0.50;99.90
52899;DHT22;38763;53.096;6.062;2023-01-26T00:17:47;0.50;99.90
52899;DHT22;38763;53.096;6.062;2023-01-26T00:20:16;0.40;99.90
52899;DHT22;38763;53.096;6.062;2023-01-26T00:22:42;0.60;99.90
52899;DHT22;38763;53.096;6.062;2023-01-26T00:25:08;0.60;99.90
52899;DHT22;38763;53.096;6.062;2023-01-26T00:27:33;0.60;99.90
52899;DHT22;38763;53.096;6.062;2023-01-26T00:29:59;0.50;99.90
52899;DHT22;38763;53.096;6.062;2023-01-26T00:32:25;0.60;99.90
52899;DHT22;38763;53.096;6.062;2023-01-26T00:34:50;0.40;99.90
52899;DHT22;38763;53.096;6.062;2023-01-26T00:37:16;0.40;99.90
52899;DHT22;38763;53.096;6.062;2023-01-26T00:39:41;0.50;99.90
52899;DHT22;38763;53.096;6.062;2023-01-26T00:42:07;0.50;99.90
52899;DHT22;38763;53.096;6.062;2023-01-26T00:44:40;0.50;99.90
52899;DHT22;38763;53.096;6.062;2023-01-26T00:47:08;0.60;99.90
52899;DHT22;38763;53.096;6.062;2023-01-26T00:49:34;0.60;99.90
52899;DHT22;38763;53.096;6.062;2023-01-26T00:52:00;0.60;99.90
52899;DHT22;38763;53.096;6.062;2023-01-26T00:54:26;0.60;99.90
52899;DHT22;38763;53.096;6.062;2023-01-26T00:56:52;0.70;99.90
52899;DHT22;38763;53.096;6.062;2023-01-26T00:59:17;0.50;99.90
52899;DHT22;38763;53.096;6.062;2023-01-26T01:01:43;0.50;99.90
52899;DHT22;38763;53.096;6.062;2023-01-26T01:04:09;0.60;99.90
52899;DHT22;38763;53.096;6.062;2023-01-26T01:06:35;0.50;99.90
52899;DHT22;38763;53.096;6.062;2023-01-26T01:09:01;0.60;99.90
52899;DHT22;38763;53.096;6.062;2023-01-26T01:11:26;0.60;99.90
52899;DHT22;38763;53.096;6.062;2023-01-26T01:13:52;0.70;99.90
52899;DHT22;38763;53.096;6.062;2023-01-26T01:16:17;0.70;99.90
52899;DHT22;38763;53.096;6.062;2023-01-26T01:18:43;0.70;99.90
52899;DHT22;38763;53.096;6.062;2023-01-26T01:21:11;0.60;99.90
52899;DHT22;38763;53.096;6.062;2023-01-26T01:23:38;0.60;99.90
52899;DHT22;38763;53.096;6.062;2023-01-26T01:26:04;0.50;99.90
52899;DHT22;38763;53.096;6.062;2023-01-26T01:28:31;0.60;99.90
52899;DHT22;38763;53.096;6.062;2023-01-26T01:30:57;0.60;99.90
52899;DHT22;38763;53.096;6.062;2023-01-26T01:33:23;0.80;99.90
52899;DHT22;38763;53.096;6.062;2023-01-26T01:36:00;0.60;99.90
52899;DHT22;38763;53.096;6.062;2023-01-26T01:38:26;0.60;99.90
52899;DHT22;38763;53.096;6.062;2023-01-26T01:40:53;0.70;99.90
52899;DHT22;38763;53.096;6.062;2023-01-26T01:43:19;0.60;99.90
52899;DHT22;38763;53.096;6.062;2023-01-26T01:45:49;0.60;99.90
52899;DHT22;38763;53.096;6.062;2023-01-26T01:50:48;0.80;99.90
52899;DHT22;38763;53.096;6.062;2023-01-26T01:53:19;0.60;99.90
52899;DHT22;38763;53.096;6.062;2023-01-26T01:55:57;0.80;99.90
52899;DHT22;38763;53.096;6.062;2023-01-26T01:58:25;0.80;99.90
52899;DHT22;38763;53.096;6.062;2023-01-26T02:00:52;0.70;99.90
52899;DHT22;38763;53.096;6.062;2023-01-26T02:03:18;0.60;99.90
52899;DHT22;38763;53.096;6.062;2023-01-26T02:08:18;0.70;99.90
52899;DHT22;38763;53.096;6.062;2023-01-26T02:10:47;0.60;99.90
52899;DHT22;38763;53.096;6.062;2023-01-26T02:13:16;0.70;99.90
52899;DHT22;38763;53.096;6.062;2023-01-26T02:15:42;0.80;99.90
52899;DHT22;38763;53.096;6.062;2023-01-26T02:18:08;0.70;99.90
52899;DHT22;38763;53.096;6.062;2023-01-26T02:20:53;0.70;99.90
52899;DHT22;38763;53.096;6.062;2023-01-26T02:28:33;0.70;99.90
52899;DHT22;38763;53.096;6.062;2023-01-26T02:30:59;0.80;99.90
52899;DHT22;38763;53.096;6.062;2023-01-26T02:33:27;0.90;99.90
52899;DHT22;38763;53.096;6.062;2023-01-26T02:35:53;0.90;99.90
52899;DHT22;38763;53.096;6.062;2023-01-26T02:38:21;0.90;99.90
52899;DHT22;38763;53.096;6.062;2023-01-26T02:41:17;0.80;99.90
52899;DHT22;38763;53.096;6.062;2023-01-26T02:44:04;0.80;99.90
52899;DHT22;38763;53.096;6.062;2023-01-26T02:46:31;0.90;99.90
52899;DHT22;38763;53.096;6.062;2023-01-26T02:48:57;0.90;99.90
52899;DHT22;38763;53.096;6.062;2023-01-26T02:51:41;0.90;99.90
52899;DHT22;38763;53.096;6.062;2023-01-26T02:54:06;0.90;99.90
52899;DHT22;38763;53.096;6.062;2023-01-26T02:56:32;0.90;99.90
52899;DHT22;38763;53.096;6.062;2023-01-26T02:58:58;0.70;99.90
52899;DHT22;38763;53.096;6.062;2023-01-26T03:01:23;0.90;99.90
52899;DHT22;38763;53.096;6.062;2023-01-26T03:03:49;0.90;99.90
52899;DHT22;38763;53.096;6.062;2023-01-26T03:06:15;0.80;99.90
52899;DHT22;38763;53.096;6.062;2023-01-26T03:08:40;0.90;99.90
52899;DHT22;38763;53.096;6.062;2023-01-26T03:11:07;1.00;99.90
52899;DHT22;38763;53.096;6.062;2023-01-26T03:13:33;1.10;99.90
52899;DHT22;38763;53.096;6.062;2023-01-26T03:15:58;0.90;99.90
52899;DHT22;38763;53.096;6.062;2023-01-26T03:18:32;1.00;99.90
52899;DHT22;38763;53.096;6.062;2023-01-26T03:21:17;0.90;99.90
52899;DHT22;38763;53.096;6.062;2023-01-26T03:24:02;0.90;99.90
52899;DHT22;38763;53.096;6.062;2023-01-26T03:26:47;1.00;99.90
52899;DHT22;38763;53.096;6.062;2023-01-26T03:29:32;1.00;99.90
52899;DHT22;38763;53.096;6.062;2023-01-26T03:31:57;1.20;99.90
52899;DHT22;38763;53.096;6.062;2023-01-26T03:34:26;1.10;99.90
52899;DHT22;38763;53.096;6.062;2023-01-26T03:36:54;1.00;99.90
52899;DHT22;38763;53.096;6.062;2023-01-26T03:39:20;1.00;99.90
52899;DHT22;38763;53.096;6.062;2023-01-26T03:42:04;1.30;99.90
52899;DHT22;38763;53.096;6.062;2023-01-26T03:44:48;1.10;99.90
52899;DHT22;38763;53.096;6.062;2023-01-26T03:47:34;1.10;99.90
52899;DHT22;38763;53.096;6.062;2023-01-26T03:50:18;1.30;99.90
52899;DHT22;38763;53.096;6.062;2023-01-26T03:53:11;1.30;99.90
52899;DHT22;38763;53.096;6.062;2023-01-26T03:55:56;1.10;99.90
52899;DHT22;38763;53.096;6.062;2023-01-26T03:58:40;1.20;99.90
52899;DHT22;38763;53.096;6.062;2023-01-26T04:01:05;1.30;99.90
52899;DHT22;38763;53.096;6.062;2023-01-26T04:03:35;1.40;99.90
52899;DHT22;38763;53.096;6.062;2023-01-26T04:06:19;1.40;99.90
52899;DHT22;38763;53.096;6.062;2023-01-26T04:09:03;1.20;99.90
52899;DHT22;38763;53.096;6.062;2023-01-26T04:11:29;1.50;99.90
52899;DHT22;38763;53.096;6.062;2023-01-26T04:13:55;1.40;99.90
52899;DHT22;38763;53.096;6.062;2023-01-26T04:16:39;1.30;99.90
52899;DHT22;38763;53.096;6.062;2023-01-26T04:19:23;1.40;99.90
52899;DHT22;38763;53.096;6.062;2023-01-26T04:22:08;1.40;99.90
52899;DHT22;38763;53.096;6.062;2023-01-26T04:24:33;1.40;99.90
52899;DHT22;38763;53.096;6.062;2023-01-26T04:26:59;1.60;99.90
52899;DHT22;38763;53.096;6.062;2023-01-26T04:29:24;1.60;99.90
52899;DHT22;38763;53.096;6.062;2023-01-26T04:31:50;1.70;99.90
52899;DHT22;38763;53.096;6.062;2023-01-26T04:34:16;1.60;99.90
52899;DHT22;38763;53.096;6.062;2023-01-26T04:36:42;1.70;99.90
52899;DHT22;38763;53.096;6.062;2023-01-26T04:39:08;1.70;99.90
52899;DHT22;38763;53.096;6.062;2023-01-26T04:41:34;1.80;99.90
52899;DHT22;38763;53.096;6.062;2023-01-26T04:44:00;1.50;99.90
52899;DHT22;38763;53.096;6.062;2023-01-26T04:46:26;1.60;99.90
52899;DHT22;38763;53.096;6.062;2023-01-26T04:48:51;1.70;99.90
52899;DHT22;38763;53.096;6.062;2023-01-26T04:51:19;1.60;99.90
52899;DHT22;38763;53.096;6.062;2023-01-26T04:53:45;1.80;99.90
52899;DHT22;38763;53.096;6.062;2023-01-26T04:56:30;1.60;99.90
52899;DHT22;38763;53.096;6.062;2023-01-26T04:58:58;1.70;99.90
52899;DHT22;38763;53.096;6.062;2023-01-26T05:01:25;1.70;99.90
52899;DHT22;38763;53.096;6.062;2023-01-26T05:03:50;1.80;99.90
52899;DHT22;38763;53.096;6.062;2023-01-26T05:06:17;1.60;99.90
52899;DHT22;38763;53.096;6.062;2023-01-26T05:08:43;1.70;99.90
52899;DHT22;38763;53.096;6.062;2023-01-26T05:11:09;1.80;99.90
52899;DHT22;38763;53.096;6.062;2023-01-26T05:13:34;1.80;99.90
52899;DHT22;38763;53.096;6.062;2023-01-26T05:16:01;1.60;99.90
52899;DHT22;38763;53.096;6.062;2023-01-26T05:18:27;1.60;99.90
52899;DHT22;38763;53.096;6.062;2023-01-26T05:20:54;1.70;99.90
52899;DHT22;38763;53.096;6.062;2023-01-26T05:23:19;1.70;99.90
52899;DHT22;38763;53.096;6.062;2023-01-26T05:25:45;1.80;99.90
52899;DHT22;38763;53.096;6.062;2023-01-26T05:28:10;1.80;99.90
52899;DHT22;38763;53.096;6.062;2023-01-26T05:30:36;1.80;99.90
52899;DHT22;38763;53.096;6.062;2023-01-26T05:33:03;1.60;99.90
52899;DHT22;38763;53.096;6.062;2023-01-26T05:35:29;1.70;99.90
52899;DHT22;38763;53.096;6.062;2023-01-26T05:37:55;1.60;99.90
52899;DHT22;38763;53.096;6.062;2023-01-26T05:40:20;1.70;99.90
52899;DHT22;38763;53.096;6.062;2023-01-26T05:42:46;1.60;99.90
52899;DHT22;38763;53.096;6.062;2023-01-26T05:45:12;1.50;99.90
52899;DHT22;38763;53.096;6.062;2023-01-26T05:47:38;1.50;99.90
52899;DHT22;38763;53.096;6.062;2023-01-26T05:50:04;1.60;99.90
52899;DHT22;38763;53.096;6.062;2023-01-26T05:52:30;1.60;99.90
52899;DHT22;38763;53.096;6.062;2023-01-26T05:54:56;1.40;99.90
52899;DHT22;38763;53.096;6.062;2023-01-26T05:57:21;1.60;99.90
52899;DHT22;38763;53.096;6.062;2023-01-26T05:59:47;1.30;99.90
52899;DHT22;38763;53.096;6.062;2023-01-26T06:02:13;1.30;99.90
52899;DHT22;38763;53.096;6.062;2023-01-26T06:04:39;1.30;99.90
52899;DHT22;38763;53.096;6.062;2023-01-26T06:07:04;1.40;99.90
52899;DHT22;38763;53.096;6.062;2023-01-26T06:09:30;1.40;99.90
52899;DHT22;38763;53.096;6.062;2023-01-26T06:11:56;1.90;99.90
52899;DHT22;38763;53.096;6.062;2023-01-26T06:14:22;1.80;99.90
52899;DHT22;38763;53.096;6.062;2023-01-26T06:16:47;2.20;99.90
52899;DHT22;38763;53.096;6.062;2023-01-26T06:19:13;2.30;99.90
52899;DHT22;38763;53.096;6.062;2023-01-26T06:21:39;2.60;99.90
52899;DHT22;38763;53.096;6.062;2023-01-26T06:24:05;2.70;99.90
52899;DHT22;38763;53.096;6.062;2023-01-26T06:26:31;2.80;99.90
52899;DHT22;38763;53.096;6.062;2023-01-26T06:28:56;3.10;99.90
52899;DHT22;38763;53.096;6.062;2023-01-26T06:31:22;3.10;99.90
52899;DHT22;38763;53.096;6.062;2023-01-26T06:33:49;3.20;99.90
52899;DHT22;38763;53.096;6.062;2023-01-26T06:36:16;3.00;99.90
52899;DHT22;38763;53.096;6.062;2023-01-26T06:38:46;3.20;99.90
52899;DHT22;38763;53.096;6.062;2023-01-26T06:41:13;3.20;99.90
52899;DHT22;38763;53.096;6.062;2023-01-26T06:43:39;3.40;99.90
52899;DHT22;38763;53.096;6.062;2023-01-26T06:46:08;3.30;99.90
52899;DHT22;38763;53.096;6.062;2023-01-26T06:48:34;3.40;99.90
52899;DHT22;38763;53.096;6.062;2023-01-26T06:53:57;3.60;99.90
52899;DHT22;38763;53.096;6.062;2023-01-26T06:56:24;3.40;99.90
52899;DHT22;38763;53.096;6.062;2023-01-26T06:58:50;3.50;99.90
52899;DHT22;38763;53.096;6.062;2023-01-26T07:01:18;3.50;99.90
52899;DHT22;38763;53.096;6.062;2023-01-26T07:03:46;3.60;99.90
52899;DHT22;38763;53.096;6.062;2023-01-26T07:06:12;3.40;99.90
52899;DHT22;38763;53.096;6.062;2023-01-26T07:08:37;3.20;99.90
52899;DHT22;38763;53.096;6.062;2023-01-26T07:11:04;3.50;99.90
52899;DHT22;38763;53.096;6.062;2023-01-26T07:13:29;3.40;99.90
52899;DHT22;38763;53.096;6.062;2023-01-26T07:16:10;3.30;99.90
52899;DHT22;38763;53.096;6.062;2023-01-26T07:18:36;3.30;99.90
52899;DHT22;38763;53.096;6.062;2023-01-26T07:21:04;3.30;99.90
52899;DHT22;38763;53.096;6.062;2023-01-26T07:23:30;3.60;99.90
52899;DHT22;38763;53.096;6.062;2023-01-26T07:25:56;3.60;99.90
52899;DHT22;38763;53.096;6.062;2023-01-26T07:28:21;3.50;99.90
52899;DHT22;38763;53.096;6.062;2023-01-26T07:30:48;3.30;99.90
52899;DHT22;38763;53.096;6.062;2023-01-26T07:33:14;3.50;99.90
52899;DHT22;38763;53.096;6.062;2023-01-26T07:35:40;3.50;99.90
52899;DHT22;38763;53.096;6.062;2023-01-26T07:38:05;3.50;99.90
52899;DHT22;38763;53.096;6.062;2023-01-26T07:40:32;3.30;99.90
52899;DHT22;38763;53.096;6.062;2023-01-26T07:42:58;3.40;99.90
52899;DHT22;38763;53.096;6.062;2023-01-26T07:45:25;3.60;99.90
52899;DHT22;38763;53.096;6.062;2023-01-26T07:47:53;3.40;99.90
52899;DHT22;38763;53.096;6.062;2023-01-26T07:50:19;3.70;99.90
52899;DHT22;38763;53.096;6.062;2023-01-26T07:52:46;3.30;99.90
52899;DHT22;38763;53.096;6.062;2023-01-26T07:55:12;3.30;99.90
52899;DHT22;38763;53.096;6.062;2023-01-26T07:57:39;3.40;99.90
52899;DHT22;38763;53.096;6.062;2023-01-26T08:00:05;3.50;99.90
52899;DHT22;38763;53.096;6.062;2023-01-26T08:02:30;3.60;99.90
52899;DHT22;38763;53.096;6.062;2023-01-26T08:04:56;3.60;99.90
52899;DHT22;38763;53.096;6.062;2023-01-26T08:07:22;3.60;99.90
52899;DHT22;38763;53.096;6.062;2023-01-26T08:09:47;3.40;99.90
52899;DHT22;38763;53.096;6.062;2023-01-26T08:12:13;3.50;99.90
52899;DHT22;38763;53.096;6.062;2023-01-26T08:14:38;3.30;99.90
52899;DHT22;38763;53.096;6.062;2023-01-26T08:17:04;3.30;99.90
52899;DHT22;38763;53.096;6.062;2023-01-26T08:19:29;3.50;99.90
52899;DHT22;38763;53.096;6.062;2023-01-26T08:21:55;3.40;99.90
52899;DHT22;38763;53.096;6.062;2023-01-26T08:24:22;3.60;99.90
52899;DHT22;38763;53.096;6.062;2023-01-26T08:26:48;3.50;99.90
52899;DHT22;38763;53.096;6.062;2023-01-26T08:29:13;3.50;99.90
52899;DHT22;38763;53.096;6.062;2023-01-26T08:31:39;3.50;99.90
52899;DHT22;38763;53.096;6.062;2023-01-26T08:34:05;3.50;99.90
52899;DHT22;38763;53.096;6.062;2023-01-26T08:36:30;3.50;99.90
52899;DHT22;38763;53.096;6.062;2023-01-26T08:38:56;3.70;99.90
52899;DHT22;38763;53.096;6.062;2023-01-26T08:41:21;3.80;99.90
52899;DHT22;38763;53.096;6.062;2023-01-26T08:43:47;3.90;99.90
52899;DHT22;38763;53.096;6.062;2023-01-26T08:46:14;3.90;99.90
52899;DHT22;38763;53.096;6.062;2023-01-26T08:48:39;3.90;99.90
52899;DHT22;38763;53.096;6.062;2023-01-26T08:51:06;4.00;99.90
52899;DHT22;38763;53.096;6.062;2023-01-26T08:53:34;4.10;99.90
52899;DHT22;38763;53.096;6.062;2023-01-26T08:56:01;4.20;99.90
52899;DHT22;38763;53.096;6.062;2023-01-26T08:58:26;4.20;99.90
52899;DHT22;38763;53.096;6.062;2023-01-26T09:00:53;4.30;99.90
52899;DHT22;38763;53.096;6.062;2023-01-26T09:03:18;4.20;99.90
52899;DHT22;38763;53.096;6.062;2023-01-26T09:05:44;4.30;99.90
52899;DHT22;38763;53.096;6.062;2023-01-26T09:08:10;4.20;99.90
52899;DHT22;38763;53.096;6.062;2023-01-26T09:10:36;4.50;99.90
52899;DHT22;38763;53.096;6.062;2023-01-26T09:13:02;4.40;99.90
52899;DHT22;38763;53.096;6.062;2023-01-26T09:15:28;4.50;99.90
52899;DHT22;38763;53.096;6.062;2023-01-26T09:17:54;4.70;99.90
52899;DHT22;38763;53.096;6.062;2023-01-26T09:20:19;4.70;99.90
52899;DHT22;38763;53.096;6.062;2023-01-26T09:22:45;4.80;99.90
52899;DHT22;38763;53.096;6.062;2023-01-26T09:25:12;4.80;99.90
52899;DHT22;38763;53.096;6.062;2023-01-26T09:27:38;4.70;99.90
52899;DHT22;38763;53.096;6.062;2023-01-26T09:30:04;4.90;99.90
52899;DHT22;38763;53.096;6.062;2023-01-26T09:32:30;4.90;99.90
52899;DHT22;38763;53.096;6.062;2023-01-26T09:34:56;4.80;99.90
52899;DHT22;38763;53.096;6.062;2023-01-26T09:37:22;4.90;99.90
52899;DHT22;38763;53.096;6.062;2023-01-26T09:39:47;4.90;99.90
52899;DHT22;38763;53.096;6.062;2023-01-26T09:42:28;5.20;99.90
52899;DHT22;38763;53.096;6.062;2023-01-26T09:50:31;5.60;99.90
52899;DHT22;38763;53.096;6.062;2023-01-26T09:53:06;5.70;99.90
52899;DHT22;38763;53.096;6.062;2023-01-26T09:55:39;5.70;99.90
52899;DHT22;38763;53.096;6.062;2023-01-26T09:58:12;5.80;99.90
52899;DHT22;38763;53.096;6.062;2023-01-26T10:00:49;5.70;99.90
52899;DHT22;38763;53.096;6.062;2023-01-26T10:03:33;5.80;99.90
52899;DHT22;38763;53.096;6.062;2023-01-26T10:06:16;5.80;99.90
52899;DHT22;38763;53.096;6.062;2023-01-26T10:08:46;5.80;99.90
52899;DHT22;38763;53.096;6.062;2023-01-26T10:11:33;6.00;99.90
52899;DHT22;38763;53.096;6.062;2023-01-26T10:16:52;6.00;99.90
52899;DHT22;38763;53.096;6.062;2023-01-26T10:19:31;6.00;99.90
52899;DHT22;38763;53.096;6.062;2023-01-26T10:22:04;6.10;99.90
52899;DHT22;38763;53.096;6.062;2023-01-26T10:24:32;6.10;99.90
52899;DHT22;38763;53.096;6.062;2023-01-26T10:26:58;6.20;99.90
52899;DHT22;38763;53.096;6.062;2023-01-26T10:29:24;6.20;99.90
52899;DHT22;38763;53.096;6.062;2023-01-26T10:31:50;6.20;99.90
52899;DHT22;38763;53.096;6.062;2023-01-26T10:34:26;6.30;99.90
52899;DHT22;38763;53.096;6.062;2023-01-26T10:37:10;6.20;99.90
52899;DHT22;38763;53.096;6.062;2023-01-26T10:42:21;6.30;99.90
52899;DHT22;38763;53.096;6.062;2023-01-26T10:44:49;6.40;99.90
52899;DHT22;38763;53.096;6.062;2023-01-26T10:47:16;6.60;99.90
52899;DHT22;38763;53.096;6.062;2023-01-26T10:49:41;6.70;99.90
52899;DHT22;38763;53.096;6.062;2023-01-26T10:52:15;6.80;99.90
52899;DHT22;38763;53.096;6.062;2023-01-26T10:54:47;6.90;99.90
52899;DHT22;38763;53.096;6.062;2023-01-26T10:57:26;6.90;99.90
52899;DHT22;38763;53.096;6.062;2023-01-26T10:59:58;6.90;99.90
52899;DHT22;38763;53.096;6.062;2023-01-26T11:02:29;6.90;99.90
52899;DHT22;38763;53.096;6.062;2023-01-26T11:07:42;7.00;99.90
52899;DHT22;38763;53.096;6.062;2023-01-26T11:12:45;7.10;99.90
52899;DHT22;38763;53.096;6.062;2023-01-26T11:15:22;7.10;99.90
52899;DHT22;38763;53.096;6.062;2023-01-26T11:17:59;6.90;99.90
52899;DHT22;38763;53.096;6.062;2023-01-26T11:22:59;6.70;99.90
52899;DHT22;38763;53.096;6.062;2023-01-26T11:25:58;6.60;99.90
52899;DHT22;38763;53.096;6.062;2023-01-26T11:33:43;6.40;99.90
52899;DHT22;38763;53.096;6.062;2023-01-26T11:36:46;6.50;99.90
52899;DHT22;38763;53.096;6.062;2023-01-26T11:42:30;6.40;99.90
52899;DHT22;38763;53.096;6.062;2023-01-26T11:45:43;6.50;99.90
52899;DHT22;38763;53.096;6.062;2023-01-26T11:51:08;6.80;99.90
52899;DHT22;38763;53.096;6.062;2023-01-26T11:54:02;6.90;99.90
52899;DHT22;38763;53.096;6.062;2023-01-26T11:57:08;7.00;99.90
52899;DHT22;38763;53.096;6.062;2023-01-26T11:59:52;7.00;99.90
52899;DHT22;38763;53.096;6.062;2023-01-26T12:02:28;7.00;99.90
52899;DHT22;38763;53.096;6.062;2023-01-26T12:04:57;7.10;99.90
52899;DHT22;38763;53.096;6.062;2023-01-26T12:07:41;7.10;99.90
52899;DHT22;38763;53.096;6.062;2023-01-26T12:10:27;7.10;99.90
52899;DHT22;38763;53.096;6.062;2023-01-26T12:13:10;7.10;99.90
52899;DHT22;38763;53.096;6.062;2023-01-26T12:15:46;7.10;99.90
52899;DHT22;38763;53.096;6.062;2023-01-26T12:18:22;7.20;99.90
52899;DHT22;38763;53.096;6.062;2023-01-26T12:20:57;7.20;99.90
52899;DHT22;38763;53.096;6.062;2023-01-26T12:23:49;7.30;99.90
52899;DHT22;38763;53.096;6.062;2023-01-26T12:26:29;7.30;99.90
52899;DHT22;38763;53.096;6.062;2023-01-26T12:30:18;7.30;99.90
52899;DHT22;38763;53.096;6.062;2023-01-26T12:32:10;7.40;99.90
52899;DHT22;38763;53.096;6.062;2023-01-26T12:34:36;7.40;99.90
52899;DHT22;38763;53.096;6.062;2023-01-26T12:40:28;7.40;99.90
52899;DHT22;38763;53.096;6.062;2023-01-26T12:45:44;7.40;99.90
52899;DHT22;38763;53.096;6.062;2023-01-26T12:48:19;7.40;99.90
52899;DHT22;38763;53.096;6.062;2023-01-26T12:51:06;7.40;99.90
52899;DHT22;38763;53.096;6.062;2023-01-26T12:53:38;7.40;99.90
52899;DHT22;38763;53.096;6.062;2023-01-26T12:56:14;7.30;99.90
52899;DHT22;38763;53.096;6.062;2023-01-26T12:58:45;7.30;99.90
52899;DHT22;38763;53.096;6.062;2023-01-26T13:01:17;7.30;99.90
52899;DHT22;38763;53.096;6.062;2023-01-26T13:03:51;7.30;99.90
52899;DHT22;38763;53.096;6.062;2023-01-26T13:06:21;7.30;99.90
52899;DHT22;38763;53.096;6.062;2023-01-26T13:16:56;7.30;99.90
52899;DHT22;38763;53.096;6.062;2023-01-26T13:19:36;7.30;99.90
52899;DHT22;38763;53.096;6.062;2023-01-26T13:24:47;7.30;99.90
52899;DHT22;38763;53.096;6.062;2023-01-26T13:30:01;7.30;99.90
52899;DHT22;38763;53.096;6.062;2023-01-26T13:34:55;7.30;99.90
52899;DHT22;38763;53.096;6.062;2023-01-26T13:37:33;7.30;99.90
52899;DHT22;38763;53.096;6.062;2023-01-26T13:40:41;7.30;99.90
52899;DHT22;38763;53.096;6.062;2023-01-26T13:48:19;7.20;99.90
52899;DHT22;38763;53.096;6.062;2023-01-26T13:50:50;7.20;99.90
52899;DHT22;38763;53.096;6.062;2023-01-26T13:53:36;7.10;99.90
52899;DHT22;38763;53.096;6.062;2023-01-26T13:56:05;7.10;99.90
52899;DHT22;38763;53.096;6.062;2023-01-26T13:58:31;7.10;99.90
52899;DHT22;38763;53.096;6.062;2023-01-26T14:03:24;7.10;99.90
52899;DHT22;38763;53.096;6.062;2023-01-26T14:05:59;7.10;99.90
52899;DHT22;38763;53.096;6.062;2023-01-26T14:08:26;7.10;99.90
52899;DHT22;38763;53.096;6.062;2023-01-26T14:10:52;7.10;99.90
52899;DHT22;38763;53.096;6.062;2023-01-26T14:13:24;7.10;99.90
52899;DHT22;38763;53.096;6.062;2023-01-26T14:15:58;7.00;99.90
52899;DHT22;38763;53.096;6.062;2023-01-26T14:18:24;7.00;99.90
52899;DHT22;38763;53.096;6.062;2023-01-26T14:21:01;7.00;99.90
52899;DHT22;38763;53.096;6.062;2023-01-26T14:23:32;7.00;99.90
52899;DHT22;38763;53.096;6.062;2023-01-26T14:26:21;7.00;99.90
52899;DHT22;38763;53.096;6.062;2023-01-26T14:28:49;7.00;99.90
52899;DHT22;38763;53.096;6.062;2023-01-26T14:31:22;7.00;99.90
52899;DHT22;38763;53.096;6.062;2023-01-26T14:33:49;7.00;99.90
52899;DHT22;38763;53.096;6.062;2023-01-26T14:36:19;7.00;99.90
52899;DHT22;38763;53.096;6.062;2023-01-26T14:38:47;7.00;99.90
52899;DHT22;38763;53.096;6.062;2023-01-26T14:41:23;7.00;99.90
52899;DHT22;38763;53.096;6.062;2023-01-26T14:43:53;7.00;99.90
52899;DHT22;38763;53.096;6.062;2023-01-26T14:49:12;7.00;99.90
52899;DHT22;38763;53.096;6.062;2023-01-26T14:51:42;7.00;99.90
52899;DHT22;38763;53.096;6.062;2023-01-26T14:54:26;6.90;99.90
52899;DHT22;38763;53.096;6.062;2023-01-26T14:56:53;6.90;99.90
52899;DHT22;38763;53.096;6.062;2023-01-26T14:59:33;6.90;99.90
52899;DHT22;38763;53.096;6.062;2023-01-26T15:02:03;6.90;99.90
52899;DHT22;38763;53.096;6.062;2023-01-26T15:04:37;6.90;99.90
52899;DHT22;38763;53.096;6.062;2023-01-26T15:07:21;6.90;99.90
52899;DHT22;38763;53.096;6.062;2023-01-26T15:09:51;6.90;99.90
52899;DHT22;38763;53.096;6.062;2023-01-26T15:12:17;6.90;99.90
52899;DHT22;38763;53.096;6.062;2023-01-26T15:14:57;6.80;99.90
52899;DHT22;38763;53.096;6.062;2023-01-26T15:19:55;6.80;99.90
52899;DHT22;38763;53.096;6.062;2023-01-26T15:22:23;6.80;99.90
52899;DHT22;38763;53.096;6.062;2023-01-26T15:27:35;6.70;99.90
52899;DHT22;38763;53.096;6.062;2023-01-26T15:30:02;6.70;99.90
52899;DHT22;38763;53.096;6.062;2023-01-26T15:32:37;6.70;99.90
52899;DHT22;38763;53.096;6.062;2023-01-26T15:37:45;6.70;99.90
52899;DHT22;38763;53.096;6.062;2023-01-26T15:40:11;6.60;99.90
52899;DHT22;38763;53.096;6.062;2023-01-26T15:42:37;6.60;99.90
52899;DHT22;38763;53.096;6.062;2023-01-26T15:45:05;6.60;99.90
52899;DHT22;38763;53.096;6.062;2023-01-26T15:47:36;6.60;99.90
52899;DHT22;38763;53.096;6.062;2023-01-26T15:50:02;6.50;99.90
52899;DHT22;38763;53.096;6.062;2023-01-26T15:52:28;6.60;99.90
52899;DHT22;38763;53.096;6.062;2023-01-26T15:54:54;6.50;99.90
52899;DHT22;38763;53.096;6.062;2023-01-26T15:57:20;6.50;99.90
52899;DHT22;38763;53.096;6.062;2023-01-26T15:59:46;6.50;99.90
52899;DHT22;38763;53.096;6.062;2023-01-26T16:02:17;6.50;99.90
52899;DHT22;38763;53.096;6.062;2023-01-26T16:04:43;6.40;99.90
52899;DHT22;38763;53.096;6.062;2023-01-26T16:07:14;6.40;99.90
52899;DHT22;38763;53.096;6.062;2023-01-26T16:09:40;6.30;99.90
52899;DHT22;38763;53.096;6.062;2023-01-26T16:12:16;6.30;99.90
52899;DHT22;38763;53.096;6.062;2023-01-26T16:14:42;6.30;99.90
52899;DHT22;38763;53.096;6.062;2023-01-26T16:17:16;6.30;99.90
52899;DHT22;38763;53.096;6.062;2023-01-26T16:19:43;6.20;99.90
52899;DHT22;38763;53.096;6.062;2023-01-26T16:22:10;6.20;99.90
52899;DHT22;38763;53.096;6.062;2023-01-26T16:24:36;6.20;99.90
52899;DHT22;38763;53.096;6.062;2023-01-26T16:27:03;6.20;99.90
52899;DHT22;38763;53.096;6.062;2023-01-26T16:29:29;6.20;99.90
52899;DHT22;38763;53.096;6.062;2023-01-26T16:31:56;6.20;99.90
52899;DHT22;38763;53.096;6.062;2023-01-26T16:34:21;6.10;99.90
52899;DHT22;38763;53.096;6.062;2023-01-26T16:36:47;6.10;99.90
52899;DHT22;38763;53.096;6.062;2023-01-26T16:39:12;6.10;99.90
52899;DHT22;38763;53.096;6.062;2023-01-26T16:41:38;6.10;99.90
52899;DHT22;38763;53.096;6.062;2023-01-26T16:44:12;6.10;99.90
52899;DHT22;38763;53.096;6.062;2023-01-26T16:46:38;6.00;99.90
52899;DHT22;38763;53.096;6.062;2023-01-26T16:49:04;6.00;99.90
52899;DHT22;38763;53.096;6.062;2023-01-26T16:51:35;5.90;99.90
52899;DHT22;38763;53.096;6.062;2023-01-26T16:54:02;5.90;99.90
52899;DHT22;38763;53.096;6.062;2023-01-26T16:56:27;5.90;99.90
52899;DHT22;38763;53.096;6.062;2023-01-26T16:58:53;5.90;99.90
52899;DHT22;38763;53.096;6.062;2023-01-26T17:01:21;6.00;99.90
52899;DHT22;38763;53.096;6.062;2023-01-26T17:03:48;5.90;99.90
52899;DHT22;38763;53.096;6.062;2023-01-26T17:06:15;5.90;99.90
52899;DHT22;38763;53.096;6.062;2023-01-26T17:08:43;5.80;99.90
52899;DHT22;38763;53.096;6.062;2023-01-26T17:11:20;5.80;99.90
52899;DHT22;38763;53.096;6.062;2023-01-26T17:13:47;5.70;99.90
52899;DHT22;38763;53.096;6.062;2023-01-26T17:16:15;5.70;99.90
52899;DHT22;38763;53.096;6.062;2023-01-26T17:18:41;5.70;99.90
52899;DHT22;38763;53.096;6.062;2023-01-26T17:21:07;5.60;99.90
52899;DHT22;38763;53.096;6.062;2023-01-26T17:23:33;5.60;99.90
52899;DHT22;38763;53.096;6.062;2023-01-26T17:25:59;5.60;99.90